sim
Sign-in with your pilot id or email,
or register
Callsign
Passwort

Schedule Details

Flight Number: OEC540
Departure: Delhi Indira Gandhi International Airport (VIDP) at Time
Arrival: Gothenburg Landvetter Airport (ESGG) at Time

Weather Information
Getting current METAR information for VIDP 292000Z 00000KT 1600 R28/2000 R29/2000 BR NSC 17/13 Q1014 NOSIG
Getting current METAR information for ESGG 291950Z 21005KT 9999 SCT019 05/04 Q1008

Schedule Frequency

Route Map